createdAt,value
2022-09-27T00:01:33.912Z,91.43
2022-09-27T00:04:03.957Z,91.58
2022-09-27T00:06:38.608Z,91.69
2022-09-27T00:09:12.258Z,91.88
2022-09-27T00:11:43.876Z,92.10
2022-09-27T00:14:15.699Z,92.18
2022-09-27T00:16:46.998Z,92.19
2022-09-27T00:19:19.871Z,92.33
2022-09-27T00:21:51.489Z,92.34
2022-09-27T00:24:24.278Z,92.65
2022-09-27T00:26:54.468Z,93.22
2022-09-27T00:29:24.300Z,93.33
2022-09-27T00:31:54.531Z,93.16
2022-09-27T00:34:27.360Z,93.18
2022-09-27T00:36:57.762Z,93.35
2022-09-27T00:39:27.934Z,93.53
2022-09-27T00:41:58.108Z,93.74
2022-09-27T00:44:34.688Z,93.66
2022-09-27T00:47:08.180Z,93.67
2022-09-27T00:49:49.894Z,93.85
2022-09-27T00:52:43.169Z,93.64
2022-09-27T00:55:25.361Z,93.74
2022-09-27T00:57:55.490Z,93.95
2022-09-27T01:00:25.683Z,94.00
2022-09-27T01:02:57.542Z,94.10
2022-09-27T01:05:30.902Z,94.24
2022-09-27T01:08:02.147Z,94.71
2022-09-27T01:10:39.689Z,94.59
2022-09-27T01:13:32.184Z,94.85
2022-09-27T01:16:06.626Z,95.13
2022-09-27T01:19:16.007Z,94.87
2022-09-27T01:21:53.741Z,95.30
2022-09-27T01:25:08.978Z,95.01
2022-09-27T01:28:00.775Z,95.46
2022-09-27T01:30:44.428Z,95.41
2022-09-27T01:33:47.434Z,95.16
2022-09-27T01:36:35.977Z,95.42
2022-09-27T01:39:10.536Z,95.62
2022-09-27T01:42:41.870Z,95.49
2022-09-27T01:45:23.985Z,96.08
2022-09-27T01:48:17.863Z,96.23
2022-09-27T01:51:23.731Z,95.86
2022-09-27T01:53:57.961Z,96.15
2022-09-27T01:56:35.920Z,96.26
2022-09-27T01:59:22.148Z,96.40
2022-09-27T02:02:04.476Z,96.54
2022-09-27T02:04:57.921Z,96.53
2022-09-27T02:07:55.221Z,96.65
2022-09-27T02:10:31.292Z,96.79
2022-09-27T02:13:22.873Z,96.67
2022-09-27T02:16:06.612Z,96.69
2022-09-27T02:18:51.737Z,95.73
2022-09-27T02:21:23.550Z,96.70
2022-09-27T02:23:59.323Z,97.00
2022-09-27T02:26:45.015Z,97.06
2022-09-27T02:29:20.789Z,97.28
2022-09-27T02:31:54.176Z,97.47
2022-09-27T02:34:33.469Z,97.56
2022-09-27T02:37:03.749Z,97.62
2022-09-27T02:39:33.643Z,97.61
2022-09-27T02:42:07.863Z,97.64
2022-09-27T02:44:40.125Z,97.84
2022-09-27T02:47:47.957Z,97.62
2022-09-27T02:50:34.631Z,98.28
2022-09-27T02:53:31.325Z,98.01
2022-09-27T02:56:17.590Z,98.06
2022-09-27T02:59:32.637Z,98.33
2022-09-27T03:02:43.984Z,98.13
2022-09-27T03:05:45.535Z,98.28
2022-09-27T03:08:17.316Z,98.42
2022-09-27T03:10:47.183Z,98.35
2022-09-27T03:13:17.006Z,98.34
2022-09-27T03:15:48.101Z,98.42
2022-09-27T03:18:21.308Z,98.09
2022-09-27T03:21:09.567Z,98.29
2022-09-27T03:23:40.002Z,98.19
2022-09-27T03:26:12.817Z,98.16
2022-09-27T03:28:43.326Z,98.08
2022-09-27T03:31:14.029Z,98.06
2022-09-27T03:33:49.550Z,98.08
2022-09-27T03:36:19.959Z,98.26
2022-09-27T03:38:50.445Z,98.34
2022-09-27T03:41:21.965Z,98.34
2022-09-27T03:43:52.209Z,98.34
2022-09-27T03:46:22.052Z,98.54
2022-09-27T03:48:52.155Z,98.76
2022-09-27T03:51:22.262Z,98.59
2022-09-27T03:53:52.314Z,98.63
2022-09-27T03:56:22.020Z,98.69
2022-09-27T03:58:51.967Z,98.85
2022-09-27T04:01:21.990Z,98.73
2022-09-27T04:03:56.974Z,98.67
2022-09-27T04:06:36.078Z,98.86
2022-09-27T04:09:07.246Z,98.97
2022-09-27T04:11:58.186Z,99.09
2022-09-27T04:14:28.721Z,99.12
2022-09-27T04:17:18.532Z,99.06
2022-09-27T04:20:15.025Z,99.00
2022-09-27T04:22:46.696Z,99.12
2022-09-27T04:25:16.832Z,98.83
2022-09-27T04:27:47.662Z,98.92
2022-09-27T04:30:17.995Z,99.08
2022-09-27T04:33:15.611Z,98.99
2022-09-27T04:36:28.279Z,99.32
2022-09-27T04:39:09.094Z,99.40
2022-09-27T04:41:42.205Z,99.47
2022-09-27T04:44:12.379Z,99.42
2022-09-27T04:46:45.199Z,99.36
2022-09-27T04:49:17.609Z,99.47
2022-09-27T04:51:48.424Z,99.50
2022-09-27T04:54:18.512Z,99.48
2022-09-27T04:56:57.156Z,99.26
2022-09-27T04:59:28.747Z,99.34
2022-09-27T05:02:01.416Z,99.38
2022-09-27T05:05:02.307Z,99.39
2022-09-27T05:07:39.298Z,99.31
2022-09-27T05:10:14.503Z,99.38
2022-09-27T05:12:44.542Z,99.42
2022-09-27T05:15:17.562Z,99.33
2022-09-27T05:18:05.219Z,98.85
2022-09-27T05:21:01.695Z,99.53
2022-09-27T05:23:38.632Z,99.70
2022-09-27T05:26:09.311Z,99.48
2022-09-27T05:28:39.895Z,99.55
2022-09-27T05:31:10.029Z,99.54
2022-09-27T05:33:40.485Z,99.57
2022-09-27T05:36:28.183Z,99.58
2022-09-27T05:38:58.375Z,99.68
2022-09-27T05:41:28.809Z,99.61
2022-09-27T05:43:59.439Z,99.71
2022-09-27T05:46:30.162Z,99.75
2022-09-27T05:49:00.199Z,99.86
2022-09-27T05:51:29.900Z,99.81
2022-09-27T05:53:59.232Z,99.37
2022-09-27T05:56:31.360Z,99.81
2022-09-27T05:59:22.015Z,99.72
2022-09-27T06:02:13.922Z,99.74
2022-09-27T06:05:02.264Z,99.57
2022-09-27T06:07:51.167Z,99.89
2022-09-27T06:10:32.606Z,99.87
2022-09-27T06:13:06.384Z,99.83
2022-09-27T06:15:41.199Z,99.99
2022-09-27T06:18:17.567Z,99.99
2022-09-27T06:20:50.079Z,99.99
2022-09-27T06:23:23.947Z,99.91
2022-09-27T06:25:55.495Z,99.92
2022-09-27T06:28:39.463Z,99.86
2022-09-27T06:31:10.994Z,99.89
2022-09-27T06:33:43.937Z,99.85
2022-09-27T06:36:14.255Z,99.95
2022-09-27T06:38:47.866Z,99.99
2022-09-27T06:41:24.156Z,99.99
2022-09-27T06:44:08.630Z,99.99
2022-09-27T06:47:18.331Z,99.99
2022-09-27T06:50:15.188Z,99.98
2022-09-27T06:52:50.916Z,99.99
2022-09-27T06:55:22.112Z,99.99
2022-09-27T06:58:17.152Z,99.99
2022-09-27T07:01:07.183Z,99.99
2022-09-27T07:04:07.088Z,99.99
2022-09-27T07:06:55.480Z,99.99
2022-09-27T07:09:32.497Z,99.99
2022-09-27T07:12:03.571Z,99.99
2022-09-27T07:14:35.731Z,99.99
2022-09-27T07:17:07.168Z,99.99
2022-09-27T07:19:44.705Z,99.99
2022-09-27T07:22:15.524Z,99.95
2022-09-27T07:24:48.735Z,99.99
2022-09-27T07:27:19.356Z,99.99
2022-09-27T07:29:50.519Z,99.99
2022-09-27T07:32:20.410Z,99.97
2022-09-27T07:34:50.862Z,99.99
2022-09-27T07:37:20.096Z,99.75
2022-09-27T07:39:49.773Z,99.99
2022-09-27T07:42:19.005Z,99.71
2022-09-27T07:44:51.726Z,99.99
2022-09-27T07:47:43.596Z,99.99
2022-09-27T07:50:23.175Z,99.99
2022-09-27T07:53:00.323Z,99.99
2022-09-27T07:55:45.722Z,99.99
2022-09-27T07:58:22.400Z,99.99
2022-09-27T08:00:56.480Z,99.99
2022-09-27T08:03:27.863Z,99.99
2022-09-27T08:05:57.946Z,99.99
2022-09-27T08:08:27.958Z,99.99
2022-09-27T08:10:57.741Z,99.99
2022-09-27T08:13:27.546Z,99.99
2022-09-27T08:16:03.257Z,99.99
2022-09-27T08:18:46.309Z,99.99
2022-09-27T08:21:35.075Z,99.99
2022-09-27T08:24:34.426Z,99.99
2022-09-27T08:27:12.168Z,99.99
2022-09-27T08:29:54.592Z,99.99
2022-09-27T08:32:26.836Z,99.99
2022-09-27T08:34:56.705Z,99.99
2022-09-27T08:37:26.880Z,99.99
2022-09-27T08:39:57.619Z,99.99
2022-09-27T08:42:33.819Z,99.99
2022-09-27T08:45:13.689Z,99.99
2022-09-27T08:47:56.215Z,99.99
2022-09-27T08:50:40.079Z,99.99
2022-09-27T08:53:27.035Z,99.99
2022-09-27T08:55:59.620Z,99.99
2022-09-27T08:58:50.604Z,99.99
2022-09-27T09:01:28.863Z,99.99
2022-09-27T09:04:13.843Z,99.99
2022-09-27T09:07:15.726Z,99.99
2022-09-27T09:10:42.062Z,99.99
2022-09-27T09:13:40.380Z,99.99
2022-09-27T09:16:29.549Z,99.99
2022-09-27T09:19:13.920Z,99.99
2022-09-27T09:21:55.051Z,99.99
2022-09-27T09:24:33.875Z,99.99
2022-09-27T09:27:37.412Z,99.99
2022-09-27T09:30:14.164Z,99.99
2022-09-27T09:33:17.659Z,99.99
2022-09-27T09:36:17.629Z,99.99
2022-09-27T09:39:01.895Z,99.99
2022-09-27T09:41:31.822Z,99.92
2022-09-27T09:44:09.028Z,99.62
2022-09-27T09:46:45.788Z,99.84
2022-09-27T09:49:19.101Z,99.56
2022-09-27T09:52:16.702Z,99.62
2022-09-27T09:54:47.378Z,99.59
2022-09-27T09:57:25.204Z,99.20
2022-09-27T10:00:02.813Z,98.84
2022-09-27T10:02:40.046Z,98.47
2022-09-27T10:05:22.984Z,98.61
2022-09-27T10:08:04.650Z,98.66
2022-09-27T10:10:36.052Z,98.92
2022-09-27T10:13:29.523Z,98.66
2022-09-27T10:16:15.822Z,98.66
2022-09-27T10:18:50.030Z,98.05
2022-09-27T10:21:23.278Z,96.96
2022-09-27T10:24:20.911Z,96.89
2022-09-27T10:27:07.153Z,96.05
2022-09-27T10:29:40.362Z,95.14
2022-09-27T10:32:34.375Z,94.87
2022-09-27T10:35:31.617Z,92.89
2022-09-27T10:38:24.531Z,91.63
2022-09-27T10:41:18.553Z,89.17
2022-09-27T10:43:48.708Z,81.28
2022-09-27T10:46:34.381Z,83.65
2022-09-27T10:49:36.854Z,86.10
2022-09-27T10:52:24.344Z,76.55
2022-09-27T10:54:56.533Z,68.66
2022-09-27T10:57:32.661Z,69.46
2022-09-27T11:00:24.074Z,77.27
2022-09-27T11:02:58.138Z,79.76
2022-09-27T11:05:36.676Z,79.18
2022-09-27T11:08:31.163Z,78.53
2022-09-27T11:11:17.537Z,69.86
2022-09-27T11:14:08.740Z,66.76
2022-09-27T11:16:47.609Z,71.35
2022-09-27T11:19:26.369Z,65.76
2022-09-27T11:22:17.032Z,65.53
2022-09-27T11:25:07.267Z,65.41
2022-09-27T11:28:04.352Z,67.56
2022-09-27T11:31:00.161Z,65.29
2022-09-27T11:34:09.412Z,61.30
2022-09-27T11:37:02.843Z,60.78
2022-09-27T11:39:54.500Z,64.38
2022-09-27T11:42:48.302Z,65.16
2022-09-27T11:45:41.149Z,64.12
2022-09-27T11:48:32.905Z,66.02
2022-09-27T11:51:23.392Z,68.39
2022-09-27T11:54:36.230Z,65.31
2022-09-27T11:57:06.565Z,63.35
2022-09-27T11:59:36.846Z,64.07
2022-09-27T12:02:18.313Z,63.13
2022-09-27T12:04:53.120Z,58.00
2022-09-27T12:08:03.637Z,61.84
2022-09-27T12:10:34.885Z,61.19
2022-09-27T12:13:05.916Z,60.37
2022-09-27T12:15:41.203Z,66.45
2022-09-27T12:18:30.662Z,60.63
2022-09-27T12:21:05.807Z,63.91
2022-09-27T12:23:49.213Z,60.87
2022-09-27T12:26:38.599Z,58.25
2022-09-27T12:29:37.591Z,60.14
2022-09-27T12:32:20.075Z,55.76
2022-09-27T12:35:04.996Z,59.01
2022-09-27T12:37:44.974Z,61.12
2022-09-27T12:40:23.593Z,57.24
2022-09-27T12:43:15.884Z,55.58
2022-09-27T12:46:19.829Z,58.34
2022-09-27T12:49:16.292Z,56.75
2022-09-27T12:52:02.714Z,57.99
2022-09-27T12:54:57.197Z,63.06
2022-09-27T12:58:04.226Z,62.97
2022-09-27T13:00:57.053Z,62.04
2022-09-27T13:03:56.706Z,60.18
2022-09-27T13:06:58.480Z,55.60
2022-09-27T13:09:52.636Z,57.11
2022-09-27T13:12:28.406Z,53.75
2022-09-27T13:15:19.311Z,57.76
2022-09-27T13:17:51.133Z,61.20
2022-09-27T13:20:47.634Z,54.20
2022-09-27T13:23:37.257Z,53.88
2022-09-27T13:26:46.428Z,56.32
2022-09-27T13:29:26.502Z,54.85
2022-09-27T13:32:01.143Z,57.64
2022-09-27T13:34:55.140Z,54.58
2022-09-27T13:37:46.568Z,54.85
2022-09-27T13:40:26.016Z,59.79
2022-09-27T13:43:14.249Z,59.39
2022-09-27T13:46:10.771Z,59.97
2022-09-27T13:48:56.380Z,53.45
2022-09-27T13:51:56.318Z,57.27
2022-09-27T13:54:51.937Z,60.24
2022-09-27T13:57:36.539Z,56.41
2022-09-27T14:00:10.885Z,54.23
2022-09-27T14:03:08.205Z,51.08
2022-09-27T14:05:50.633Z,49.14
2022-09-27T14:08:40.855Z,51.39
2022-09-27T14:11:18.679Z,47.30
2022-09-27T14:13:50.470Z,49.79
2022-09-27T14:16:23.239Z,51.47
2022-09-27T14:19:00.707Z,53.39
2022-09-27T14:21:40.740Z,55.00
2022-09-27T14:24:34.511Z,51.55
2022-09-27T14:27:37.077Z,49.16
2022-09-27T14:30:31.851Z,51.72
2022-09-27T14:33:33.105Z,50.02
2022-09-27T14:36:37.184Z,48.75
2022-09-27T14:39:18.025Z,46.84
2022-09-27T14:41:52.862Z,48.71
2022-09-27T14:44:27.977Z,51.07
2022-09-27T14:47:24.354Z,47.58
2022-09-27T14:50:05.618Z,46.63
2022-09-27T14:52:37.617Z,49.07
2022-09-27T14:55:31.751Z,52.97
2022-09-27T14:58:04.308Z,49.66
2022-09-27T15:00:37.442Z,50.65
2022-09-27T15:03:11.005Z,48.67
2022-09-27T15:05:44.552Z,48.30
2022-09-27T15:08:16.531Z,48.32
2022-09-27T15:10:51.150Z,49.42
2022-09-27T15:13:22.816Z,43.54
2022-09-27T15:15:54.075Z,44.92
2022-09-27T15:18:47.752Z,44.20
2022-09-27T15:21:33.443Z,42.82
2022-09-27T15:24:05.045Z,44.40
2022-09-27T15:26:48.530Z,43.23
2022-09-27T15:29:24.234Z,39.40
2022-09-27T15:32:06.895Z,41.39
2022-09-27T15:34:38.293Z,40.78
2022-09-27T15:37:08.417Z,44.78
2022-09-27T15:39:39.994Z,36.56
2022-09-27T15:42:11.186Z,33.20
2022-09-27T15:44:49.968Z,42.14
2022-09-27T15:47:41.365Z,40.51
2022-09-27T15:50:17.908Z,40.26
2022-09-27T15:52:54.241Z,35.28
2022-09-27T15:55:27.800Z,40.86
2022-09-27T15:58:03.886Z,38.05
2022-09-27T16:00:34.268Z,34.57
2022-09-27T16:03:04.677Z,36.77
2022-09-27T16:05:34.376Z,36.87
2022-09-27T16:08:04.065Z,44.53
2022-09-27T16:10:42.403Z,38.32
2022-09-27T16:13:12.528Z,38.45
2022-09-27T16:15:42.926Z,39.04
2022-09-27T16:18:13.374Z,38.65
2022-09-27T16:20:43.763Z,39.73
2022-09-27T16:23:13.680Z,37.45
2022-09-27T16:25:43.348Z,38.26
2022-09-27T16:28:13.391Z,37.38
2022-09-27T16:30:43.064Z,35.22
2022-09-27T16:33:12.859Z,34.61
2022-09-27T16:35:42.737Z,35.41
2022-09-27T16:38:12.568Z,36.36
2022-09-27T16:40:42.281Z,38.89
2022-09-27T16:43:13.250Z,38.98
2022-09-27T16:45:43.455Z,34.28
2022-09-27T16:48:13.119Z,35.78
2022-09-27T16:51:00.687Z,34.80
2022-09-27T16:53:31.153Z,35.24
2022-09-27T16:56:01.762Z,36.13
2022-09-27T16:58:32.336Z,33.76
2022-09-27T17:01:02.158Z,34.58
2022-09-27T17:03:31.876Z,35.23
2022-09-27T17:06:07.756Z,37.35
2022-09-27T17:08:38.036Z,36.52
2022-09-27T17:11:08.256Z,36.18
2022-09-27T17:13:38.000Z,34.42
2022-09-27T17:16:07.885Z,35.64
2022-09-27T17:18:38.020Z,34.67
2022-09-27T17:21:10.197Z,38.43
2022-09-27T17:23:40.533Z,35.20
2022-09-27T17:26:32.973Z,37.26
2022-09-27T17:29:03.524Z,38.19
2022-09-27T17:31:35.732Z,40.56
2022-09-27T17:34:06.475Z,39.41
2022-09-27T17:36:38.540Z,37.73
2022-09-27T17:39:11.308Z,40.62
2022-09-27T17:41:41.241Z,39.89
2022-09-27T17:44:14.617Z,41.10
2022-09-27T17:46:45.498Z,43.61
2022-09-27T17:49:54.395Z,42.61
2022-09-27T17:52:27.108Z,41.38
2022-09-27T17:54:58.706Z,39.27
2022-09-27T17:57:28.689Z,39.11
2022-09-27T17:59:59.082Z,37.52
2022-09-27T18:02:29.478Z,37.10
2022-09-27T18:04:59.281Z,38.70
2022-09-27T18:07:30.185Z,41.79
2022-09-27T18:10:00.508Z,35.98
2022-09-27T18:12:56.353Z,39.29
2022-09-27T18:15:27.417Z,39.54
2022-09-27T18:17:58.527Z,39.71
2022-09-27T18:20:28.252Z,38.86
2022-09-27T18:22:57.921Z,40.58
2022-09-27T18:25:27.835Z,38.02
2022-09-27T18:27:57.571Z,38.04
2022-09-27T18:30:27.622Z,40.82
2022-09-27T18:32:57.313Z,39.95
2022-09-27T18:35:29.912Z,42.57
2022-09-27T18:37:59.974Z,39.59
2022-09-27T18:40:54.425Z,40.14
2022-09-27T18:43:20.002Z,40.39
2022-09-27T18:45:49.746Z,42.85
2022-09-27T18:48:19.425Z,42.93
2022-09-27T18:50:50.027Z,40.57
2022-09-27T18:53:19.889Z,40.02
2022-09-27T18:55:49.584Z,41.66
2022-09-27T18:58:19.315Z,46.54
2022-09-27T19:00:54.722Z,46.08
2022-09-27T19:03:25.295Z,47.17
2022-09-27T19:06:03.485Z,47.64
2022-09-27T19:08:33.941Z,48.13
2022-09-27T19:11:12.458Z,48.73
2022-09-27T19:13:50.936Z,46.50
2022-09-27T19:16:23.109Z,46.35
2022-09-27T19:18:53.436Z,43.80
2022-09-27T19:21:25.896Z,43.63
2022-09-27T19:23:56.466Z,42.27
2022-09-27T19:26:28.451Z,44.65
2022-09-27T19:29:00.890Z,48.18
2022-09-27T19:31:31.063Z,51.62
2022-09-27T19:34:00.991Z,53.76
2022-09-27T19:36:31.083Z,54.22
2022-09-27T19:39:01.476Z,55.67
2022-09-27T19:41:31.406Z,55.56
2022-09-27T19:44:01.177Z,56.60
2022-09-27T19:46:30.874Z,54.82
2022-09-27T19:49:02.990Z,50.48
2022-09-27T19:51:33.605Z,46.92
2022-09-27T19:54:03.659Z,46.43
2022-09-27T19:56:33.513Z,44.92
2022-09-27T19:59:07.073Z,44.90
2022-09-27T20:01:38.660Z,49.85
2022-09-27T20:04:09.013Z,52.33
2022-09-27T20:06:38.703Z,52.72
2022-09-27T20:09:08.762Z,54.87
2022-09-27T20:11:38.445Z,54.42
2022-09-27T20:14:08.204Z,56.05
2022-09-27T20:16:41.240Z,59.67
2022-09-27T20:19:12.293Z,60.32
2022-09-27T20:21:42.034Z,61.40
2022-09-27T20:24:11.751Z,62.32
2022-09-27T20:26:43.050Z,63.02
2022-09-27T20:29:13.300Z,61.81
2022-09-27T20:31:57.021Z,62.18
2022-09-27T20:34:34.005Z,60.36
2022-09-27T20:37:04.451Z,57.27
2022-09-27T20:39:34.132Z,57.40
2022-09-27T20:42:03.908Z,57.64
2022-09-27T20:44:34.379Z,61.23
2022-09-27T20:47:04.148Z,64.58
2022-09-27T20:49:33.884Z,67.18
2022-09-27T20:52:03.749Z,67.65
2022-09-27T20:54:34.125Z,68.09
2022-09-27T20:57:03.804Z,68.94
2022-09-27T20:59:34.237Z,69.29
2022-09-27T21:02:03.991Z,69.82
2022-09-27T21:04:33.799Z,69.80
2022-09-27T21:07:04.973Z,69.95
2022-09-27T21:09:36.985Z,70.55
2022-09-27T21:12:07.087Z,70.59
2022-09-27T21:14:36.772Z,71.15
2022-09-27T21:17:09.563Z,70.92
2022-09-27T21:19:39.708Z,70.33
2022-09-27T21:22:09.618Z,70.52
2022-09-27T21:24:39.512Z,70.84
2022-09-27T21:27:09.181Z,68.97
2022-09-27T21:29:38.918Z,65.76
2022-09-27T21:32:08.816Z,66.13
2022-09-27T21:34:38.535Z,63.38
2022-09-27T21:37:08.229Z,63.06
2022-09-27T21:39:38.271Z,63.32
2022-09-27T21:42:09.327Z,62.84
2022-09-27T21:44:39.206Z,61.92
2022-09-27T21:47:08.964Z,61.93
2022-09-27T21:49:39.422Z,61.59
2022-09-27T21:52:09.096Z,61.54
2022-09-27T21:54:39.107Z,61.54
2022-09-27T21:57:08.945Z,61.52
2022-09-27T21:59:38.750Z,61.84
2022-09-27T22:02:08.521Z,62.68
2022-09-27T22:04:38.226Z,63.26
2022-09-27T22:07:07.906Z,63.17
2022-09-27T22:09:37.796Z,64.60
2022-09-27T22:12:07.585Z,64.33
2022-09-27T22:14:37.326Z,65.37
2022-09-27T22:17:06.972Z,65.40
2022-09-27T22:19:36.701Z,65.94
2022-09-27T22:22:06.405Z,66.52
2022-09-27T22:24:36.417Z,67.24
2022-09-27T22:27:06.232Z,66.44
2022-09-27T22:29:35.918Z,66.21
2022-09-27T22:32:05.646Z,66.48
2022-09-27T22:34:35.322Z,67.53
2022-09-27T22:37:05.054Z,68.18
2022-09-27T22:39:35.219Z,67.23
2022-09-27T22:42:04.961Z,70.58
2022-09-27T22:44:36.253Z,72.19
2022-09-27T22:47:06.897Z,73.06
2022-09-27T22:49:36.980Z,73.48
2022-09-27T22:52:06.728Z,74.65
2022-09-27T22:54:38.026Z,75.25
2022-09-27T22:57:08.144Z,75.60
2022-09-27T22:59:37.894Z,76.12
2022-09-27T23:02:07.917Z,75.56
2022-09-27T23:04:37.648Z,76.06
2022-09-27T23:07:07.321Z,75.85
2022-09-27T23:09:37.171Z,76.28
2022-09-27T23:12:09.225Z,76.75
2022-09-27T23:14:42.603Z,78.61
2022-09-27T23:17:12.830Z,78.34
2022-09-27T23:19:42.749Z,79.06
2022-09-27T23:22:12.491Z,79.36
2022-09-27T23:24:42.215Z,80.17
2022-09-27T23:27:30.041Z,80.99
2022-09-27T23:30:00.427Z,80.61
2022-09-27T23:32:31.902Z,80.85
2022-09-27T23:35:02.335Z,81.03
2022-09-27T23:37:31.983Z,81.73
2022-09-27T23:40:01.909Z,80.72
2022-09-27T23:42:32.022Z,80.86
2022-09-27T23:45:02.512Z,81.25
2022-09-27T23:47:33.145Z,81.87
2022-09-27T23:50:03.406Z,81.90
2022-09-27T23:52:33.111Z,82.36
2022-09-27T23:55:03.281Z,82.51
2022-09-27T23:57:33.065Z,82.15
